Aeroporto :
LOGIN :

Iscrizione | Disclaimer

   EN    FR    IT 

 










Sommario :    VFR   VFR Marginale   IFR   IFR Intensivo   IFR Molto Intensivo
Visibilità : 
Base nubi : 
>= 8 km
>= 3000ft
5 / 8 km
1000 / 3000 ft
1500m / 5 km
500 / 1000 ft
800 / 1500m
200 / 500 ft
< 800m
< 200 ft
Simboli :   Temporali  Nebbia  Neve Forte  Precipitazioni Forti  Vento > 20 kt
SIGMETs :   Varie  Temporali  Ghiacco  Turbolenza  Onda orograficha  Ceneri Vulcaniche






- Altitudine del aeroporto : 7 ft
- Codice IATA : XHE


LFTH - Hyeres

ULTIMO METAR :
  • 230100Z AUTO 13017KT 7000 -RA BKN016/// OVC025/// ///CB 16/14 Q0999 TEMPO 0500 +TSRA BKN005 OVC008CB BECMG 11025G40KT

METARs OBSOLETI :
  • 230030Z AUTO 13017G28KT 7000 RA OVC015/// ///CB 16/14 Q1000 TEMPO 0500 +TSRA BKN005 OVC008CB BECMG 11025G40KT
  • 230000Z AUTO 13017G29KT 9999 -RA OVC014/// ///TCU 17/14 Q1000 TEMPO 0500 +TSRA BKN005 OVC008CB BECMG 11025G40KT
  • 222330Z AUTO 13017KT 9999 -RA OVC012/// ///TCU 17/15 Q1000 TEMPO 0500 +TSRA BKN005 OVC008CB BECMG 11025G40KT
  • 222300Z AUTO 14018KT 9999 BKN013/// OVC074/// ///CB 17/15 Q1001 TEMPO 0500 +TSRA BKN005 OVC008CB BECMG 12015G25KT
  • 222230Z AUTO 14016KT 120V180 9999 -RA BKN014/// OVC039/// ///CB 17/14 Q1001 TEMPO 0500 +TSRA BKN005 OVC008CB BECMG 12015G25KT

TAF TAF LFTH
Valido dal 22 a 21 ore il 23 a 21 ore UTC


222000Z 2221/2321 12015G25KT 8000 RA BKN009 OVC020
TEMPO 2221/2321 5000 RA BKN010TCU OVC020
BECMG 2301/2303 11025G40KT
PROB40
TEMPO 2221/2321 2000 TSRA SCT005 OVC010CB
PROB40
TEMPO 2221/2315 0500 +TSRA BKN005 OVC008CB
PROB40
TEMPO 2312/2315 09025G50KT 0200 +TSGRRA OVC005CB
BECMG 2312/2314 11015G30KT



MetMap, La meteo Aeronautica in un colpo d'occhio ! - Copyright ORBIFLY Dicembre 2007 - Disclaimer

ORBIFLY MET'MAP TEAM :

Programmazione e sviluppo : Alexandra Zaïnal
Concezione e sviluppo : Baudouin d'Aumeries
Co-Programmazione e sviluppo : Marc-Olivier Méhu
Supporto tecnico e logistico : Manuel Goepfert
Aiuto per la traduzione : Arnaldo La Scala

Contatto : metmap@orbifly.com




FONTI E CREDITI :

   NOAA